Argyle, Georgia
Current Conditions -  °F | °C
As of 12:55 PM on Sunday 21 Dec 2014 (Local Time) from KHOE Reporting Station
Light Rain Light Rain  
Wind Chill: 13°   Ceiling: 500
Heat Index: 13°   Visibility: 7mi
Dew Point: 12°   Wind: 6mph
Humidity: 94%   Direction: 70°ENE
Pressure: 30.1"   Gusts: NA
Location:  31.07°N, 82.65°W
Report Text: KHOE 211755Z AUTO 07005KT 7SM -RA OVC005 13/12 A3010 RMK AO2
Loading
Personal Weather Stations






























Interactive Weather Map New forecast layout! Learn more

10-Day Weather Forecast

Advertisements
Track Severe Weather on mobile